Time;durP1;ratioP1;P1;durP2;ratioP2;P2;SDS_P1;SDS_P2;PMS_P1;PMS_P2;Temp;Humidity;BMP_temperature;BMP_pressure;BME280_temperature;BME280_humidity;BME280_pressure;Samples;Min_cycle;Max_cycle;Signal;HPM_P1;HPM_P2
2023/10/05 00:01:53;;;;;;;5.20;4.13;;;8.20;97.40;;;7.48;100.00;98890.75;5043508;28;20993;-81
2023/10/05 00:04:23;;;;;;;7.67;4.10;;;8.20;98.00;;;7.01;100.00;98814.47;5040937;28;20460;-83
2023/10/05 00:06:53;;;;;;;4.87;4.33;;;8.10;97.80;;;7.48;100.00;98885.38;5048791;28;20452;-80
2023/10/05 00:09:21;;;;;;;8.70;4.57;;;8.10;97.80;;;7.32;100.00;98859.41;5036487;28;20454;-86
2023/10/05 00:11:49;;;;;;;5.30;4.00;;;8.00;98.00;;;7.38;100.00;98888.25;5043234;28;20457;-86
2023/10/05 00:14:18;;;;;;;5.27;3.57;;;8.00;98.20;;;7.34;100.00;98874.31;5043651;28;20473;-84
2023/10/05 00:16:48;;;;;;;5.30;4.77;;;8.00;98.20;;;7.30;100.00;98873.00;5041634;28;20451;-83
2023/10/05 00:19:20;;;;;;;11.60;5.80;;;8.00;98.50;;;7.40;100.00;98888.09;5038839;28;20461;-82
2023/10/05 00:21:50;;;;;;;5.40;4.57;;;8.00;98.70;;;7.39;100.00;98870.28;5043544;28;20465;-86
2023/10/05 00:24:21;;;;;;;6.60;4.37;;;7.90;98.30;;;7.43;100.00;98877.00;5041771;28;20457;-87
2023/10/05 00:26:50;;;;;;;4.97;4.17;;;8.00;98.60;;;7.31;100.00;98874.66;5046548;28;20528;-86
2023/10/05 00:29:28;;;;;;;4.90;4.40;;;7.90;97.80;;;7.25;99.88;98856.56;5044562;28;20446;-83
2023/10/05 00:31:58;;;;;;;7.80;4.50;;;7.90;98.00;;;7.26;100.00;98866.31;5061833;28;20450;-82
2023/10/05 00:34:27;;;;;;;5.63;4.10;;;7.90;98.10;;;7.31;100.00;98863.09;5065484;28;20495;-79
2023/10/05 00:36:57;;;;;;;4.93;4.43;;;7.80;98.10;;;7.24;100.00;98857.56;5062046;28;20513;-82
2023/10/05 00:39:25;;;;;;;5.23;4.73;;;7.80;98.20;;;7.04;100.00;98836.44;5044997;28;20457;-83
2023/10/05 00:42:02;;;;;;;6.50;4.73;;;7.80;98.30;;;7.27;100.00;98867.97;5048298;28;20515;-82
2023/10/05 00:44:35;;;;;;;5.23;4.60;;;7.80;98.60;;;7.06;100.00;98861.31;5052166;28;20442;-85
2023/10/05 00:47:06;;;;;;;7.10;4.80;;;7.80;97.60;;;7.17;100.00;98876.25;5067082;28;21017;-84
2023/10/05 00:49:45;;;;;;;5.83;4.97;;;7.80;98.30;;;7.15;100.00;98869.34;5067121;28;20461;-83
2023/10/05 00:52:15;;;;;;;7.53;4.80;;;7.70;98.00;;;7.19;100.00;98886.81;5050621;28;20457;-86
2023/10/05 00:54:48;;;;;;;5.07;4.50;;;7.70;97.90;;;7.02;100.00;98875.28;5048084;28;20545;-85
2023/10/05 00:57:21;;;;;;;8.93;4.50;;;7.70;98.10;;;7.09;100.00;98882.47;5046614;28;20450;-85
2023/10/05 00:59:59;;;;;;;7.63;4.90;;;7.60;98.60;;;7.10;100.00;98880.59;5038294;28;20465;-84
2023/10/05 01:02:30;;;;;;;7.53;4.80;;;7.60;98.90;;;7.04;100.00;98874.06;5036904;28;20455;-81
2023/10/05 01:05:01;;;;;;;4.80;4.40;;;7.70;98.90;;;7.06;100.00;98880.13;5059832;28;20945;-82
2023/10/05 01:07:56;;;;;;;6.63;4.20;;;7.70;98.40;;;6.98;100.00;98888.19;5056996;28;20496;-79
2023/10/05 01:10:29;;;;;;;5.40;4.30;;;7.60;98.60;;;6.84;100.00;98870.09;5070714;28;21266;-78
2023/10/05 01:13:00;;;;;;;6.20;4.97;;;7.60;98.80;;;6.92;100.00;98891.59;5097175;28;20478;-80
2023/10/05 01:15:33;;;;;;;6.30;5.23;;;7.60;98.50;;;6.98;100.00;98893.56;5084833;28;20459;-78
2023/10/05 01:18:00;;;;;;;5.43;4.77;;;7.60;99.20;;;6.96;100.00;98890.22;5058357;28;20497;-81
2023/10/05 01:20:29;;;;;;;5.97;4.90;;;7.60;98.90;;;6.78;100.00;98888.56;5051258;28;21260;-83
2023/10/05 01:23:01;;;;;;;4.70;4.30;;;7.50;98.80;;;6.89;100.00;98889.22;5044852;28;20458;-83
2023/10/05 01:25:28;;;;;;;6.30;4.80;;;7.50;99.60;;;6.92;100.00;98888.91;5044724;28;20465;-78
2023/10/05 01:27:56;;;;;;;4.37;4.03;;;7.50;99.90;;;6.89;100.00;98895.44;5058069;28;20819;-78
2023/10/05 01:30:23;;;;;;;6.00;4.93;;;7.50;99.80;;;6.89;100.00;98895.44;5045205;28;20922;-84
2023/10/05 01:32:50;;;;;;;5.93;4.43;;;7.50;99.90;;;6.91;100.00;98879.16;5044807;28;20534;-83
2023/10/05 01:35:19;;;;;;;7.03;4.23;;;7.50;99.70;;;6.89;100.00;98884.69;5043175;28;20458;-84
2023/10/05 01:37:51;;;;;;;6.57;4.27;;;7.50;99.40;;;6.79;100.00;98870.59;5047151;28;20459;-83
2023/10/05 01:40:30;;;;;;;5.40;4.57;;;7.40;99.00;;;6.79;100.00;98860.72;5047675;28;20442;-84
2023/10/05 01:42:59;;;;;;;9.23;5.00;;;7.40;99.50;;;6.72;100.00;98832.84;5046716;28;20454;-83
2023/10/05 01:45:29;;;;;;;6.10;5.50;;;7.40;99.90;;;6.77;100.00;98857.34;5057725;28;20447;-83
2023/10/05 01:48:01;;;;;;;5.07;4.23;;;7.40;99.20;;;6.19;100.00;98750.03;5055066;28;20519;-86
2023/10/05 01:50:28;;;;;;;4.50;4.10;;;7.50;99.40;;;6.84;100.00;98851.28;5051958;28;20442;-81
2023/10/05 01:53:04;;;;;;;5.57;4.80;;;7.50;99.40;;;6.57;100.00;98829.16;5047202;28;20461;-84
2023/10/05 01:55:37;;;;;;;5.30;4.80;;;7.40;99.30;;;6.71;100.00;98846.44;5046953;28;20450;-88
2023/10/05 01:58:06;;;;;;;8.63;4.80;;;7.40;99.10;;;6.69;100.00;98843.91;5066142;28;20806;-85
2023/10/05 02:00:37;;;;;;;7.60;4.73;;;7.40;99.20;;;6.74;100.00;98841.56;5045683;28;20489;-87
2023/10/05 02:03:07;;;;;;;10.97;5.00;;;7.40;99.40;;;6.77;100.00;98838.56;5049379;28;20533;-83
2023/10/05 02:05:36;;;;;;;5.93;4.80;;;7.40;99.30;;;6.82;100.00;98826.44;5044112;28;20507;-86
2023/10/05 02:08:03;;;;;;;7.50;5.20;;;7.50;99.10;;;6.68;100.00;98820.75;5064244;28;20472;-84
2023/10/05 02:10:32;;;;;;;5.90;4.27;;;7.50;98.50;;;6.82;100.00;98835.34;5054014;28;20441;-84
2023/10/05 02:13:02;;;;;;;7.40;4.40;;;7.50;98.60;;;6.85;100.00;98818.91;5058695;28;20472;-80
2023/10/05 02:15:29;;;;;;;4.97;4.47;;;7.50;98.70;;;6.96;100.00;98833.81;5041836;28;20548;-84
2023/10/05 02:17:59;;;;;;;5.53;4.90;;;7.50;98.30;;;6.90;100.00;98812.97;5050630;28;20449;-85
2023/10/05 02:20:41;;;;;;;6.57;4.70;;;7.50;98.70;;;6.47;100.00;98743.44;5041970;28;20454;-83
2023/10/05 02:26:02;;;;;;;8.30;4.67;;;7.60;98.40;;;7.01;100.00;98828.75;5033712;28;20455;-84
2023/10/05 02:28:33;;;;;;;6.07;4.90;;;7.60;98.10;;;6.95;100.00;98832.13;5049830;28;20473;-80
2023/10/05 02:31:05;;;;;;;6.30;4.70;;;7.60;97.60;;;6.85;100.00;98816.22;5069762;28;20840;-83
2023/10/05 02:33:33;;;;;;;7.80;4.80;;;7.60;98.00;;;6.43;100.00;98737.56;5068616;28;20524;-84
2023/10/05 02:36:11;;;;;;;5.33;4.87;;;7.50;97.60;;;6.93;100.00;98823.41;5052631;28;22161;-85
2023/10/05 02:38:49;;;;;;;6.80;4.43;;;7.50;97.90;;;6.48;100.00;98761.22;5055301;28;20452;-84
2023/10/05 02:41:17;;;;;;;4.70;4.30;;;7.50;97.60;;;6.88;100.00;98815.00;5053867;28;20480;-85
2023/10/05 02:43:52;;;;;;;6.43;4.33;;;7.50;97.70;;;6.98;100.00;98826.41;5055591;28;20457;-86
2023/10/05 02:46:24;;;;;;;7.17;4.00;;;7.50;97.40;;;6.98;99.86;98814.84;5044820;28;20446;-83
2023/10/05 02:48:51;;;;;;;4.93;4.47;;;7.60;97.50;;;7.03;99.67;98834.78;5042504;28;20473;-84
2023/10/05 02:51:20;;;;;;;5.03;4.47;;;7.60;97.50;;;6.78;100.00;98809.84;5053585;28;20455;-86
2023/10/05 02:53:47;;;;;;;7.20;4.97;;;7.60;97.10;;;6.47;100.00;98748.81;5044323;28;20453;-87
2023/10/05 02:56:22;;;;;;;5.27;4.47;;;7.50;97.60;;;7.03;100.00;98824.03;5060208;28;20532;-84
2023/10/05 02:59:01;;;;;;;5.60;4.70;;;7.60;97.70;;;7.04;100.00;98820.31;5053582;28;20476;-81
2023/10/05 03:01:32;;;;;;;5.67;4.60;;;7.60;97.70;;;6.88;100.00;98820.38;5053921;28;20538;-84
2023/10/05 03:04:04;;;;;;;4.80;4.40;;;7.50;97.40;;;6.30;99.98;98727.38;5052530;28;20510;-86
2023/10/05 03:06:31;;;;;;;6.43;5.03;;;7.50;97.30;;;6.98;100.00;98826.41;5072765;28;20549;-84
2023/10/05 03:09:06;;;;;;;7.20;5.33;;;7.50;97.70;;;6.97;100.00;98819.34;5051387;28;20509;-87
2023/10/05 03:11:37;;;;;;;8.17;5.00;;;7.50;97.60;;;6.93;100.00;98797.38;5072050;28;20446;-83
2023/10/05 03:14:09;;;;;;;9.17;4.33;;;7.50;97.70;;;7.03;99.96;98813.28;5050559;28;20478;-87
2023/10/05 03:16:44;;;;;;;7.60;5.13;;;7.60;97.40;;;6.87;100.00;98803.44;5051794;28;20446;-81
2023/10/05 03:19:14;;;;;;;5.30;4.80;;;7.50;97.50;;;6.85;100.00;98809.97;5061325;28;20553;-86
2023/10/05 03:21:42;;;;;;;7.77;4.67;;;7.50;97.70;;;6.76;100.00;98807.34;5056935;28;20445;-82
2023/10/05 03:24:13;;;;;;;6.90;5.03;;;7.50;97.50;;;6.83;100.00;98801.25;5057169;28;20453;-83
2023/10/05 03:26:41;;;;;;;5.30;4.50;;;7.50;97.70;;;6.90;100.00;98834.47;5036819;28;20460;-82
2023/10/05 03:29:11;;;;;;;9.87;5.50;;;7.50;97.60;;;6.92;100.00;98819.03;5066544;28;20477;-80
2023/10/05 03:31:43;;;;;;;7.17;5.90;;;7.50;97.70;;;6.94;98.98;98814.34;5055353;28;20977;-84
2023/10/05 03:34:11;;;;;;;4.90;4.40;;;7.50;97.30;;;6.76;99.61;98806.47;5053182;28;20452;-86
2023/10/05 03:36:39;;;;;;;7.20;5.07;;;7.50;96.40;;;6.79;100.00;98817.72;5065309;28;20449;-82
2023/10/05 03:39:07;;;;;;;4.30;4.00;;;7.50;96.70;;;6.83;100.00;98815.53;5045484;28;20462;-87
2023/10/05 03:41:38;;;;;;;5.77;4.13;;;7.50;96.90;;;6.73;100.00;98815.72;5067646;28;20455;-85
2023/10/05 03:44:07;;;;;;;7.33;5.27;;;7.40;96.80;;;6.36;100.00;98766.13;5061384;28;20505;-87
2023/10/05 03:46:36;;;;;;;6.10;4.83;;;7.30;96.80;;;6.57;100.00;98818.44;5047050;28;20450;-84
2023/10/05 03:49:06;;;;;;;7.47;5.50;;;7.30;97.30;;;6.47;100.00;98803.34;5041981;28;20515;-81
2023/10/05 03:51:37;;;;;;;7.50;4.87;;;7.30;97.80;;;6.65;100.00;98821.94;5050486;28;20446;-84
2023/10/05 03:54:07;;;;;;;7.03;5.50;;;7.30;98.40;;;6.53;100.00;98812.59;5076216;28;21121;-85
2023/10/05 03:56:36;;;;;;;6.83;4.93;;;7.30;98.20;;;6.55;100.00;98815.06;5057334;28;20741;-88
2023/10/05 03:59:03;;;;;;;5.70;4.77;;;7.30;97.70;;;6.66;100.00;98834.34;5058550;28;20451;-76
2023/10/05 04:01:31;;;;;;;7.03;4.87;;;7.30;97.80;;;6.77;100.00;98856.50;5073523;28;20459;-84
2023/10/05 04:04:04;;;;;;;8.93;5.73;;;7.30;98.40;;;6.62;100.00;98813.41;5048670;28;20476;-84
2023/10/05 04:06:32;;;;;;;6.13;4.80;;;7.30;98.30;;;6.71;100.00;98828.47;5066902;28;20461;-81
2023/10/05 04:08:59;;;;;;;6.70;5.00;;;7.30;98.10;;;6.60;100.00;98837.72;5063236;28;20787;-83
2023/10/05 04:11:27;;;;;;;8.13;5.20;;;7.30;98.10;;;6.73;100.00;98839.88;5066858;28;20449;-82
2023/10/05 04:13:55;;;;;;;5.37;4.80;;;7.30;98.40;;;6.71;100.00;98833.84;5065593;28;20457;-80
2023/10/05 04:16:26;;;;;;;5.60;5.10;;;7.40;98.30;;;6.36;100.00;98780.34;5085531;28;20530;-81
2023/10/05 04:18:54;;;;;;;5.80;4.73;;;7.40;97.80;;;6.84;100.00;98845.91;5058810;28;20829;-84
2023/10/05 04:21:23;;;;;;;5.67;4.90;;;7.40;97.80;;;6.86;100.00;98839.38;5050526;28;20514;-81
2023/10/05 04:23:56;;;;;;;5.80;5.17;;;7.50;98.00;;;6.79;99.88;98843.75;5049764;28;21004;-82
2023/10/05 04:26:32;;;;;;;5.13;4.40;;;7.40;96.70;;;6.76;99.93;98853.00;5050520;28;20469;-87
2023/10/05 04:29:04;;;;;;;7.37;4.57;;;7.40;96.50;;;6.58;100.00;98804.00;5063503;28;20477;-83
2023/10/05 04:31:32;;;;;;;6.07;5.30;;;7.40;96.50;;;6.78;100.00;98821.44;5040154;28;20526;-86
2023/10/05 04:34:00;;;;;;;5.33;4.83;;;7.50;96.80;;;6.89;99.87;98832.81;5078857;28;20821;-84
2023/10/05 04:36:30;;;;;;;6.80;5.17;;;7.50;96.60;;;6.35;99.30;98742.97;5057841;28;20547;-83
2023/10/05 04:38:57;;;;;;;10.63;6.07;;;7.50;96.50;;;6.93;99.21;98836.84;5050850;28;20445;-88
2023/10/05 04:41:28;;;;;;;7.10;4.97;;;7.50;96.10;;;6.60;99.24;98783.19;5055419;28;20457;-86
2023/10/05 04:43:57;;;;;;;5.10;4.63;;;7.50;96.20;;;6.97;99.14;98829.25;5039870;28;20459;-86
2023/10/05 04:46:25;;;;;;;5.40;4.90;;;7.50;96.20;;;6.97;98.45;98834.63;5037062;28;20458;-83
2023/10/05 04:49:07;;;;;;;7.60;4.40;;;7.50;96.10;;;6.93;98.73;98834.97;5032171;28;20536;-80
2023/10/05 04:51:40;;;;;;;5.20;4.70;;;7.50;96.00;;;6.95;97.89;98837.50;5069853;28;20844;-79
2023/10/05 04:54:10;;;;;;;6.30;4.07;;;7.60;95.60;;;6.83;98.72;98839.72;5049665;28;20837;-77
2023/10/05 04:56:53;;;;;;;5.70;4.47;;;7.50;95.60;;;6.98;98.41;98850.59;5035426;28;20457;-77
2023/10/05 04:59:48;;;;;;;6.43;4.80;;;7.50;95.90;;;6.86;98.22;98843.91;5042186;28;20507;-77
2023/10/05 05:02:35;;;;;;;4.87;4.33;;;7.50;95.30;;;6.93;98.99;98842.22;5042227;28;20441;-75
2023/10/05 05:05:21;;;;;;;7.90;4.93;;;7.50;95.90;;;7.13;99.64;98839.97;5044337;28;20458;-78
2023/10/05 05:07:53;;;;;;;5.27;4.73;;;7.60;97.00;;;7.18;98.14;98834.91;5041183;28;20961;-79
2023/10/05 05:10:21;;;;;;;5.33;4.70;;;7.80;96.20;;;7.00;97.94;98848.56;5042318;28;20582;-78
2023/10/05 05:12:48;;;;;;;8.30;4.90;;;7.70;94.80;;;6.87;98.61;98845.56;5049844;28;20458;-79
2023/10/05 05:15:16;;;;;;;7.57;4.60;;;7.60;95.10;;;7.04;99.16;98836.44;5042763;28;20548;-79
2023/10/05 05:17:44;;;;;;;6.30;4.90;;;7.60;96.20;;;7.18;98.69;98836.75;5038222;28;20458;-82
2023/10/05 05:20:15;;;;;;;8.63;5.00;;;7.70;96.30;;;7.23;97.25;98815.59;5042993;28;20448;-79
2023/10/05 05:22:46;;;;;;;5.27;4.80;;;7.80;95.60;;;6.62;97.37;98762.38;5040209;28;21119;-74
2023/10/05 05:25:19;;;;;;;6.43;4.63;;;7.70;94.90;;;7.25;97.74;98832.38;5041177;28;20576;-75
2023/10/05 05:27:46;;;;;;;4.87;4.37;;;7.80;95.20;;;7.11;97.24;98841.97;5039913;28;20462;-74
2023/10/05 05:30:24;;;;;;;8.10;5.00;;;7.80;94.50;;;7.17;97.23;98819.81;5039960;28;20473;-74
2023/10/05 05:32:54;;;;;;;8.37;4.20;;;7.80;95.10;;;6.68;97.66;98777.78;5039030;28;20579;-76
2023/10/05 05:35:22;;;;;;;6.53;5.20;;;7.70;94.50;;;7.11;97.68;98830.41;5058017;28;20569;-77
2023/10/05 05:37:49;;;;;;;7.17;4.37;;;7.70;94.80;;;6.81;97.18;98782.63;5041849;28;20461;-77
2023/10/05 05:40:18;;;;;;;6.90;4.90;;;7.70;95.10;;;7.17;97.29;98816.25;5070835;28;20450;-75
2023/10/05 05:42:45;;;;;;;13.23;4.67;;;7.80;95.00;;;7.36;96.30;98823.94;5043651;28;20450;-75
2023/10/05 05:45:16;;;;;;;6.80;5.10;;;7.90;94.90;;;7.75;96.22;98826.75;5042160;28;20449;-75
2023/10/05 05:47:45;;;;;;;6.67;5.47;;;8.20;95.10;;;7.74;94.16;98825.06;5040593;28;20457;-73
2023/10/05 05:50:17;;;;;;;9.30;5.33;;;8.30;93.50;;;7.74;93.42;98827.75;5049245;28;20829;-76
2023/10/05 05:52:47;;;;;;;7.00;5.00;;;8.40;92.90;;;7.88;93.54;98827.00;5044642;28;20465;-78
2023/10/05 05:55:17;;;;;;;8.73;5.10;;;8.40;92.60;;;8.08;93.01;98823.81;5039986;28;20452;-84
2023/10/05 05:57:46;;;;;;;11.03;5.33;;;8.60;92.50;;;8.39;92.01;98820.22;5038954;28;20931;-77
2023/10/05 06:00:17;;;;;;;11.50;6.07;;;8.80;92.60;;;8.19;90.92;98826.09;5037844;28;20534;-79
2023/10/05 06:02:46;;;;;;;11.53;6.30;;;8.80;91.10;;;8.23;90.59;98826.59;5040338;28;20634;-80
2023/10/05 06:05:15;;;;;;;9.30;6.60;;;8.80;90.90;;;8.68;90.57;98821.34;5065333;28;20526;-80
2023/10/05 06:07:44;;;;;;;8.83;5.73;;;9.10;91.30;;;8.31;89.20;98817.63;5038343;28;20620;-78
2023/10/05 06:10:13;;;;;;;6.20;5.53;;;9.10;90.10;;;8.57;88.58;98829.84;5042062;28;21029;-80
2023/10/05 06:12:41;;;;;;;7.93;5.57;;;9.20;90.10;;;8.62;88.55;98844.44;5040369;28;20475;-80
2023/10/05 06:15:13;;;;;;;9.40;4.53;;;9.20;90.00;;;8.28;88.81;98828.75;5041899;28;20520;-80
2023/10/05 06:17:41;;;;;;;7.23;4.87;;;9.10;89.60;;;8.44;90.58;98842.06;5043550;28;20458;-80
2023/10/05 06:20:14;;;;;;;6.27;5.00;;;9.00;90.40;;;8.61;88.72;98852.72;5065612;28;20485;-80
2023/10/05 06:22:44;;;;;;;5.37;4.87;;;9.10;90.20;;;8.84;88.62;98836.50;5056661;28;20528;-80
2023/10/05 06:25:13;;;;;;;7.80;4.90;;;9.30;90.10;;;8.98;87.35;98824.06;5043859;28;20451;-79
2023/10/05 06:27:40;;;;;;;8.67;5.43;;;9.50;89.40;;;8.88;87.10;98813.56;5040960;28;20458;-80
2023/10/05 06:30:11;;;;;;;9.53;5.07;;;9.50;89.10;;;8.99;85.91;98793.38;5071434;28;20459;-79
2023/10/05 06:32:38;;;;;;;15.73;8.03;;;9.70;88.80;;;8.75;87.45;98798.03;5036411;28;20545;-79
2023/10/05 06:35:08;;;;;;;6.27;5.63;;;9.40;88.90;;;9.28;86.16;98805.19;5042451;28;20512;-78
2023/10/05 06:37:38;;;;;;;5.27;4.77;;;9.70;88.80;;;9.30;86.25;98797.72;5075240;28;20455;-80
2023/10/05 06:40:12;;;;;;;5.73;4.70;;;9.80;88.80;;;9.48;83.63;98805.44;5034704;28;20929;-79
2023/10/05 06:42:41;;;;;;;5.93;4.87;;;10.00;86.70;;;9.55;83.27;98808.22;5043027;28;20469;-80
2023/10/05 06:45:13;;;;;;;8.10;4.30;;;10.10;86.40;;;9.49;83.51;98811.66;5071773;28;20461;-79
2023/10/05 06:47:40;;;;;;;10.30;4.90;;;10.10;86.00;;;9.84;84.33;98819.94;5043516;28;20550;-79
2023/10/05 06:50:10;;;;;;;8.10;4.97;;;10.20;86.90;;;9.49;84.12;98811.66;5042747;28;20461;-81
2023/10/05 06:52:39;;;;;;;8.83;5.10;;;10.10;86.00;;;9.76;85.09;98836.25;5047730;28;20448;-80
2023/10/05 06:55:08;;;;;;;7.00;4.60;;;10.10;87.10;;;9.92;82.75;98844.09;5040504;28;20463;-79
2023/10/05 06:57:36;;;;;;;6.23;5.20;;;10.30;86.40;;;9.96;83.61;98828.38;5044375;28;20455;-79
2023/10/05 07:00:16;;;;;;;5.40;4.90;;;10.40;86.70;;;10.23;82.13;98835.91;5044321;28;20458;-79
2023/10/05 07:02:44;;;;;;;9.20;6.10;;;10.60;86.20;;;10.11;81.46;98843.69;5043188;28;20449;-76
2023/10/05 07:05:13;;;;;;;5.90;5.03;;;10.60;85.30;;;9.87;82.47;98848.44;5040554;28;20450;-74
2023/10/05 07:07:41;;;;;;;6.30;4.80;;;10.50;85.40;;;10.38;80.72;98852.88;5044048;28;20456;-76
2023/10/05 07:10:10;;;;;;;9.10;6.40;;;10.80;85.30;;;10.37;80.02;98850.38;5042618;28;20486;-75
2023/10/05 07:12:41;;;;;;;10.00;5.90;;;10.90;84.60;;;10.27;79.94;98834.50;5059248;28;20940;-75
2023/10/05 07:15:11;;;;;;;8.83;5.60;;;11.00;84.40;;;11.08;78.04;98851.38;5038651;28;20451;-77
2023/10/05 07:17:38;;;;;;;7.07;5.20;;;11.30;84.50;;;11.25;77.25;98858.13;5042001;28;20467;-76
2023/10/05 07:20:11;;;;;;;6.60;5.30;;;11.60;83.80;;;11.43;76.52;98871.13;5041421;28;20463;-76
2023/10/05 07:22:39;;;;;;;5.17;4.60;;;11.70;83.10;;;11.99;73.51;98874.72;5043325;28;20460;-75
2023/10/05 07:25:09;;;;;;;8.27;5.20;;;12.30;82.60;;;11.96;73.27;98855.31;5058793;28;20546;-75
2023/10/05 07:27:36;;;;;;;11.33;6.27;;;12.40;82.10;;;12.04;73.21;98855.13;5046857;28;20451;-75
2023/10/05 07:30:04;;;;;;;10.10;4.83;;;12.50;81.30;;;11.18;74.58;98778.84;5046846;28;20487;-75
2023/10/05 07:32:34;;;;;;;6.30;5.37;;;12.20;81.30;;;11.94;73.20;98870.94;5039272;28;20494;-76
2023/10/05 07:35:01;;;;;;;10.23;5.70;;;12.40;81.40;;;12.16;72.87;98880.59;5056507;28;20444;-75
2023/10/05 07:37:29;;;;;;;11.17;5.70;;;12.60;81.30;;;12.41;71.47;98869.19;5067611;28;20497;-74
2023/10/05 07:39:56;;;;;;;8.70;5.50;;;12.80;80.70;;;12.77;70.29;98871.69;5032630;28;20468;-75
2023/10/05 07:42:23;;;;;;;7.23;5.27;;;13.00;80.40;;;12.51;71.15;98873.34;5037399;28;20461;-76
2023/10/05 07:44:51;;;;;;;8.30;5.53;;;12.90;80.10;;;12.69;70.15;98870.03;5039878;28;20447;-75
2023/10/05 07:47:19;;;;;;;8.07;5.70;;;13.10;80.10;;;12.64;70.56;98877.97;5055902;28;20462;-74
2023/10/05 07:49:47;;;;;;;6.53;4.97;;;13.00;79.80;;;12.65;70.97;98872.31;5039699;28;20483;-74
2023/10/05 07:52:16;;;;;;;11.60;5.97;;;13.10;80.00;;;12.84;70.01;98875.25;5040306;28;20447;-73
2023/10/05 07:54:43;;;;;;;6.67;5.30;;;13.20;79.70;;;12.89;70.09;98878.16;5043065;28;20459;-74
2023/10/05 07:57:13;;;;;;;10.67;6.63;;;13.30;79.50;;;12.95;70.14;98881.94;5052622;28;20475;-74
2023/10/05 07:59:41;;;;;;;8.20;6.00;;;13.40;79.30;;;12.91;69.98;98862.53;5059159;28;20928;-75
2023/10/05 08:02:10;;;;;;;6.90;5.03;;;13.50;79.40;;;13.45;68.05;98878.75;5065085;28;20465;-73
2023/10/05 08:04:37;;;;;;;9.97;5.67;;;13.70;79.10;;;13.53;68.37;98888.53;5035006;28;20514;-74
2023/10/05 08:07:07;;;;;;;9.27;5.67;;;13.80;79.00;;;13.45;68.68;98889.59;5036968;28;20465;-74
2023/10/05 08:09:35;;;;;;;12.20;5.40;;;13.80;78.70;;;13.65;67.79;98883.28;5044761;28;20867;-72
2023/10/05 08:12:02;;;;;;;7.13;5.27;;;13.90;78.60;;;13.40;68.62;98887.50;5039963;28;20799;-74
2023/10/05 08:14:31;;;;;;;6.97;5.23;;;13.80;78.90;;;13.24;69.17;98888.75;5065498;28;20452;-74
2023/10/05 08:16:59;;;;;;;8.80;6.03;;;13.70;78.80;;;13.00;70.75;98895.69;5040261;28;20466;-73
2023/10/05 08:19:28;;;;;;;10.47;5.30;;;13.50;79.20;;;13.35;70.11;98889.16;5051314;28;20535;-74
2023/10/05 08:21:55;;;;;;;9.93;5.63;;;13.60;79.60;;;13.50;68.58;98900.66;5039393;28;20645;-73
2023/10/05 08:24:25;;;;;;;9.70;6.00;;;13.70;78.90;;;13.45;69.39;98898.56;5039949;28;20466;-73
2023/10/05 08:26:56;;;;;;;7.60;4.90;;;13.70;79.00;;;13.53;69.47;98886.63;5057772;28;20458;-74
2023/10/05 08:29:24;;;;;;;13.00;6.50;;;13.80;79.10;;;13.86;67.95;98890.28;5038367;28;20506;-74
2023/10/05 08:31:52;;;;;;;10.67;5.60;;;14.00;79.10;;;14.16;67.08;98889.72;5036426;28;20450;-74
2023/10/05 08:34:21;;;;;;;6.03;4.57;;;14.20;78.80;;;14.34;67.02;98894.44;5043297;28;20483;-74
2023/10/05 08:36:53;;;;;;;6.93;4.83;;;14.50;78.60;;;14.22;67.21;98894.28;5043378;28;20908;-74
2023/10/05 08:39:24;;;;;;;9.17;5.23;;;14.50;78.10;;;14.10;67.55;98888.72;5046585;28;20479;-73
2023/10/05 08:41:57;;;;;;;10.97;5.77;;;14.60;78.10;;;14.17;67.56;98886.78;5041678;28;20509;-75
2023/10/05 08:44:27;;;;;;;8.73;4.70;;;14.60;78.40;;;14.10;67.60;98894.16;5040888;28;20477;-73
2023/10/05 08:46:58;;;;;;;8.30;4.70;;;14.50;78.20;;;14.22;67.53;98896.19;5038175;28;20467;-74
2023/10/05 08:49:26;;;;;;;10.67;5.20;;;14.60;78.20;;;14.34;67.48;98888.16;5041921;28;20828;-73
2023/10/05 08:51:54;;;;;;;7.03;4.77;;;14.60;78.30;;;14.35;66.78;98892.53;5054183;28;20481;-74
2023/10/05 08:54:27;;;;;;;9.90;5.50;;;14.70;77.70;;;14.09;67.51;98889.75;5042509;28;20458;-74
2023/10/05 08:56:59;;;;;;;8.87;5.30;;;14.70;77.60;;;14.47;66.51;98884.50;5044141;28;20474;-73
2023/10/05 08:59:27;;;;;;;9.70;5.23;;;14.70;77.80;;;14.55;66.86;98892.41;5040190;28;20979;-74
2023/10/05 09:01:59;;;;;;;10.70;5.13;;;14.80;78.20;;;14.65;65.77;98829.38;5044855;28;20468;-74
2023/10/05 09:04:43;;;;;;;10.20;4.77;;;15.20;78.00;;;15.17;64.13;98837.28;5076593;28;20456;-75
2023/10/05 09:07:14;;;;;;;8.37;4.50;;;15.60;77.20;;;15.65;63.36;98881.16;5043154;28;20601;-74
2023/10/05 09:09:52;;;;;;;9.40;4.67;;;15.90;76.50;;;15.44;63.52;98894.19;5040262;28;20473;-74
2023/10/05 09:12:32;;;;;;;10.57;4.63;;;15.90;76.10;;;15.89;62.43;98890.31;5047135;28;20451;-74
2023/10/05 09:15:18;;;;;;;6.70;3.80;;;16.10;75.90;;;16.33;61.44;98884.72;5046521;28;20460;-73
2023/10/05 09:18:17;;;;;;;6.97;4.50;;;16.50;75.50;;;16.39;60.17;98883.78;5044653;28;20457;-73
2023/10/05 09:20:48;;;;;;;8.67;4.03;;;16.80;74.60;;;16.47;60.47;98887.25;5046314;28;20884;-74
2023/10/05 09:23:20;;;;;;;10.80;5.10;;;16.80;74.50;;;16.71;60.24;98879.97;5036975;28;20457;-75
2023/10/05 09:25:48;;;;;;;6.27;3.60;;;16.90;74.60;;;16.50;59.74;98892.25;5045984;28;20461;-74
2023/10/05 09:28:44;;;;;;;10.43;4.60;;;16.80;73.60;;;16.61;59.34;98890.59;5056255;28;20470;-74
2023/10/05 09:31:13;;;;;;;6.63;4.33;;;16.80;73.30;;;16.64;59.80;98893.69;5038358;28;20472;-71
2023/10/05 09:33:53;;;;;;;11.82;5.22;;;17.00;73.60;;;17.01;59.04;98891.88;5041037;28;20453;-75
2023/10/05 09:36:22;;;;;;;7.00;4.20;;;17.20;73.50;;;16.52;59.18;98871.84;5046317;28;20281;-74
2023/10/05 09:38:51;;;;;;;10.43;4.50;;;17.20;72.50;;;16.88;59.04;98891.00;5046850;28;20544;-73
2023/10/05 09:41:21;;;;;;;9.00;4.27;;;17.10;72.80;;;17.03;58.63;98893.31;5046317;28;21200;-75
2023/10/05 09:44:00;;;;;;;9.53;4.60;;;17.20;72.70;;;17.33;56.41;98895.09;5048048;28;20456;-74
2023/10/05 09:46:28;;;;;;;10.53;4.90;;;17.50;71.40;;;17.32;56.44;98887.13;5044456;28;20561;-73
2023/10/05 09:49:01;;;;;;;9.97;5.17;;;17.50;71.00;;;16.80;57.54;98885.91;5043936;28;20450;-73
2023/10/05 09:51:29;;;;;;;11.10;5.40;;;17.20;70.70;;;16.42;58.81;98871.59;5042227;28;20492;-75
2023/10/05 09:53:59;;;;;;;9.20;6.23;;;16.90;70.90;;;16.38;59.62;98862.22;5045619;28;20464;-75
2023/10/05 09:56:27;;;;;;;8.83;5.07;;;16.70;71.40;;;16.70;59.13;98857.28;5044189;28;20489;-75
2023/10/05 09:58:58;;;;;;;11.77;5.67;;;16.90;72.00;;;17.07;56.73;98858.19;5043525;28;20441;-74
2023/10/05 10:01:27;;;;;;;8.93;4.83;;;17.10;70.70;;;16.68;56.74;98864.88;5042938;28;20450;-74
2023/10/05 10:03:56;;;;;;;10.20;5.47;;;17.10;69.80;;;16.73;56.12;98863.34;5059389;28;20454;-74
2023/10/05 10:06:28;;;;;;;8.83;4.77;;;17.10;69.20;;;16.78;56.10;98872.47;5043116;28;20522;-74
2023/10/05 10:09:07;;;;;;;14.50;5.47;;;17.10;69.10;;;16.67;56.10;98860.50;5044969;28;20544;-75
2023/10/05 10:11:36;;;;;;;10.70;5.20;;;17.00;68.70;;;16.26;57.04;98854.81;5038398;28;21067;-74
2023/10/05 10:14:09;;;;;;;10.83;5.17;;;16.70;68.80;;;16.40;57.35;98851.91;5044461;28;20550;-73
2023/10/05 10:16:39;;;;;;;10.57;5.23;;;16.70;69.20;;;16.62;55.64;98865.81;5040433;28;20503;-73
2023/10/05 10:19:19;;;;;;;8.90;4.83;;;16.90;68.30;;;16.79;55.42;98854.22;5046132;28;20757;-73
2023/10/05 10:21:53;;;;;;;10.97;5.43;;;17.10;68.00;;;17.07;54.82;98871.84;5061162;28;20535;-73
2023/10/05 10:24:20;;;;;;;10.17;5.13;;;17.40;67.90;;;17.20;54.20;98877.03;5046652;28;20453;-70
2023/10/05 10:26:53;;;;;;;10.63;5.40;;;17.50;67.20;;;17.15;53.92;98849.63;5044249;28;20504;-69
2023/10/05 10:29:42;;;;;;;12.20;5.20;;;17.50;67.00;;;17.21;53.91;98867.81;5042813;28;20877;-69
2023/10/05 10:32:18;;;;;;;12.50;5.57;;;17.50;66.60;;;17.10;53.98;98868.63;5043375;28;20488;-69
2023/10/05 10:34:50;;;;;;;7.70;4.70;;;17.40;66.50;;;16.95;54.55;98860.88;5045238;28;20445;-72
2023/10/05 10:37:38;;;;;;;11.03;4.87;;;17.30;66.70;;;16.93;55.31;98868.47;5046678;28;20848;-70
2023/10/05 10:40:12;;;;;;;12.73;6.30;;;17.30;67.30;;;16.79;56.03;98862.41;5040170;28;20961;-71
2023/10/05 10:42:53;;;;;;;9.80;5.13;;;17.10;67.80;;;16.93;55.60;98863.84;5044382;28;20464;-71
2023/10/05 10:45:28;;;;;;;12.13;5.23;;;17.10;67.60;;;16.83;54.92;98861.72;5041187;28;20469;-70